createdAt,value
2023-02-02T00:00:11.232Z,96532.47
2023-02-02T00:02:13.907Z,96511.22
2023-02-02T00:04:20.627Z,96541.03
2023-02-02T00:06:25.449Z,96521.03
2023-02-02T00:08:28.176Z,96515.22
2023-02-02T00:10:30.876Z,96473.38
2023-02-02T00:12:33.541Z,96548.66
2023-02-02T00:14:36.367Z,96508.91
2023-02-02T00:16:40.953Z,96528.63
2023-02-02T00:18:44.019Z,96529.19
2023-02-02T00:20:49.312Z,96535.69
2023-02-02T00:22:52.071Z,96533.00
2023-02-02T00:24:54.824Z,96540.56
2023-02-02T00:27:00.267Z,96506.22
2023-02-02T00:29:03.639Z,96527.63
2023-02-02T00:31:06.556Z,96529.53
2023-02-02T00:33:09.320Z,96488.16
2023-02-02T00:35:12.131Z,96413.94
2023-02-02T00:37:16.534Z,96550.25
2023-02-02T00:39:21.345Z,96534.31
2023-02-02T00:41:24.147Z,96451.97
2023-02-02T00:43:27.251Z,96510.28
2023-02-02T00:45:29.207Z,96529.78
2023-02-02T00:47:31.925Z,96523.69
2023-02-02T00:49:35.197Z,96519.25
2023-02-02T00:51:38.472Z,96500.72
2023-02-02T00:53:42.569Z,96508.34
2023-02-02T00:55:45.900Z,96424.97
2023-02-02T00:57:49.042Z,96509.50
2023-02-02T00:59:51.821Z,96532.34
2023-02-02T01:01:54.933Z,96519.16
2023-02-02T01:03:58.927Z,96513.94
2023-02-02T01:06:01.709Z,96369.34
2023-02-02T01:08:04.488Z,96517.63
2023-02-02T01:10:12.216Z,96453.53
2023-02-02T01:12:14.951Z,96521.03
2023-02-02T01:14:17.710Z,96514.84
2023-02-02T01:16:22.372Z,96519.66
2023-02-02T01:18:25.374Z,96542.91
2023-02-02T01:20:28.166Z,96533.31
2023-02-02T01:22:31.385Z,96530.66
2023-02-02T01:24:34.194Z,96550.31
2023-02-02T01:26:38.331Z,96543.75
2023-02-02T01:28:41.794Z,96542.59
2023-02-02T01:30:44.599Z,96531.16
2023-02-02T01:32:47.340Z,96516.75
2023-02-02T01:34:50.087Z,96524.91
2023-02-02T01:36:52.871Z,96529.75
2023-02-02T01:38:55.850Z,96542.72
2023-02-02T01:41:00.952Z,96536.56
2023-02-02T01:43:16.811Z,96547.69
2023-02-02T01:45:29.850Z,96537.78
2023-02-02T01:47:37.598Z,96447.06
2023-02-02T01:49:42.003Z,96538.19
2023-02-02T01:51:50.307Z,96536.69
2023-02-02T01:53:55.803Z,96531.31
2023-02-02T01:55:59.216Z,96530.94
2023-02-02T01:58:06.895Z,96525.06
2023-02-02T02:00:15.327Z,96533.72
2023-02-02T02:02:18.438Z,96527.78
2023-02-02T02:04:21.743Z,96530.34
2023-02-02T02:06:25.873Z,96536.00
2023-02-02T02:08:31.999Z,96535.13
2023-02-02T02:10:34.902Z,96542.97
2023-02-02T02:12:37.747Z,96547.53
2023-02-02T02:15:00.267Z,96549.81
2023-02-02T02:17:15.855Z,96532.66
2023-02-02T02:20:02.891Z,96530.53
2023-02-02T02:22:43.754Z,96488.84
2023-02-02T02:25:49.398Z,96529.34
2023-02-02T02:28:28.366Z,96486.13
2023-02-02T02:30:58.578Z,96526.69
2023-02-02T02:33:06.609Z,96532.53
2023-02-02T02:35:18.253Z,96531.47
2023-02-02T02:37:30.946Z,96504.75
2023-02-02T02:39:39.996Z,96532.91
2023-02-02T02:41:46.892Z,96507.47
2023-02-02T02:43:56.058Z,96545.69
2023-02-02T02:45:59.693Z,96538.28
2023-02-02T02:48:04.694Z,96540.63
2023-02-02T02:50:08.298Z,96548.56
2023-02-02T02:52:11.608Z,96537.44
2023-02-02T02:54:18.685Z,96548.28
2023-02-02T02:56:30.968Z,96544.00
2023-02-02T02:58:42.761Z,96545.31
2023-02-02T03:00:57.491Z,96515.03
2023-02-02T03:03:12.127Z,96568.91
2023-02-02T03:05:27.556Z,96476.91
2023-02-02T03:07:36.585Z,96501.09
2023-02-02T03:09:43.944Z,96566.66
2023-02-02T03:11:46.903Z,96543.84
2023-02-02T03:13:49.923Z,96569.31
2023-02-02T03:15:52.668Z,96565.78
2023-02-02T03:17:55.841Z,96549.91
2023-02-02T03:19:59.882Z,96564.56
2023-02-02T03:22:03.214Z,96556.81
2023-02-02T03:24:06.416Z,96559.69
2023-02-02T03:26:09.136Z,96501.44
2023-02-02T03:28:11.877Z,96553.38
2023-02-02T03:30:15.472Z,96540.28
2023-02-02T03:32:18.271Z,96477.03
2023-02-02T03:34:20.984Z,96547.19
2023-02-02T03:36:25.031Z,96523.38
2023-02-02T03:38:27.996Z,96462.06
2023-02-02T03:40:31.012Z,96477.09
2023-02-02T03:42:33.786Z,96508.53
2023-02-02T03:44:36.655Z,96539.44
2023-02-02T03:46:39.398Z,96536.91
2023-02-02T03:48:42.118Z,96529.66
2023-02-02T03:50:44.773Z,96540.38
2023-02-02T03:52:49.520Z,96498.22
2023-02-02T03:54:52.745Z,96555.94
2023-02-02T03:56:55.528Z,96530.03
2023-02-02T03:58:58.283Z,96553.41
2023-02-02T04:01:04.232Z,96547.84
2023-02-02T04:03:07.232Z,96555.69
2023-02-02T04:05:10.247Z,96567.72
2023-02-02T04:07:12.990Z,96562.66
2023-02-02T04:09:17.104Z,96488.59
2023-02-02T04:11:20.197Z,96558.72
2023-02-02T04:13:23.015Z,96569.47
2023-02-02T04:15:26.027Z,96573.41
2023-02-02T04:17:29.046Z,96562.41
2023-02-02T04:19:31.879Z,96565.88
2023-02-02T04:21:34.714Z,96558.09
2023-02-02T04:23:38.229Z,96546.44
2023-02-02T04:25:50.227Z,96539.06
2023-02-02T04:27:53.063Z,96539.13
2023-02-02T04:29:56.164Z,96563.34
2023-02-02T04:31:59.007Z,96573.59
2023-02-02T04:34:02.383Z,96588.06
2023-02-02T04:36:05.921Z,96521.03
2023-02-02T04:38:08.767Z,96576.50
2023-02-02T04:40:14.484Z,96576.69
2023-02-02T04:42:18.827Z,96550.56
2023-02-02T04:44:21.591Z,96575.22
2023-02-02T04:46:24.434Z,96571.50
2023-02-02T04:48:27.297Z,96568.47
2023-02-02T04:50:30.507Z,96570.28
2023-02-02T04:52:33.529Z,96498.16
2023-02-02T04:54:36.220Z,96579.22
2023-02-02T04:56:38.987Z,96590.59
2023-02-02T04:58:43.445Z,96560.78
2023-02-02T05:00:46.396Z,96556.94
2023-02-02T05:02:49.254Z,96583.59
2023-02-02T05:04:52.009Z,96564.78
2023-02-02T05:06:55.063Z,96582.84
2023-02-02T05:08:57.854Z,96591.63
2023-02-02T05:11:00.878Z,96577.56
2023-02-02T05:13:03.852Z,96580.56
2023-02-02T05:15:09.305Z,96588.25
2023-02-02T05:17:12.075Z,96595.78
2023-02-02T05:19:16.817Z,96590.59
2023-02-02T05:21:19.736Z,96578.56
2023-02-02T05:23:22.519Z,96591.47
2023-02-02T05:25:25.649Z,96585.66
2023-02-02T05:27:28.650Z,96584.56
2023-02-02T05:29:32.183Z,96586.16
2023-02-02T05:31:36.699Z,96597.81
2023-02-02T05:33:39.549Z,96583.00
2023-02-02T05:35:42.368Z,96604.03
2023-02-02T05:37:45.068Z,96604.22
2023-02-02T05:39:47.810Z,96611.09
2023-02-02T05:41:50.519Z,96600.63
2023-02-02T05:43:53.296Z,96609.84
2023-02-02T05:45:56.266Z,96601.59
2023-02-02T05:48:00.385Z,96605.78
2023-02-02T05:50:03.489Z,96613.56
2023-02-02T05:52:06.410Z,96618.00
2023-02-02T05:54:09.124Z,96611.84
2023-02-02T05:56:12.196Z,96614.72
2023-02-02T05:58:14.943Z,96616.03
2023-02-02T06:00:18.520Z,96620.16
2023-02-02T06:02:21.550Z,96601.75
2023-02-02T06:04:25.589Z,96628.44
2023-02-02T06:06:28.350Z,96617.75
2023-02-02T06:08:31.149Z,96594.16
2023-02-02T06:10:33.833Z,96621.09
2023-02-02T06:12:36.524Z,96623.50
2023-02-02T06:14:39.201Z,96625.41
2023-02-02T06:16:42.008Z,96636.53
2023-02-02T06:18:45.119Z,96634.00
2023-02-02T06:20:49.178Z,96631.78
2023-02-02T06:22:51.934Z,96648.94
2023-02-02T06:24:54.604Z,96644.91
2023-02-02T06:26:57.329Z,96616.13
2023-02-02T06:29:00.087Z,96664.44
2023-02-02T06:31:06.614Z,96650.66
2023-02-02T06:33:09.357Z,96649.75
2023-02-02T06:35:12.355Z,96656.13
2023-02-02T06:37:16.419Z,96661.00
2023-02-02T06:39:19.304Z,96626.59
2023-02-02T06:41:22.442Z,96651.81
2023-02-02T06:43:25.304Z,96655.38
2023-02-02T06:45:29.003Z,96653.63
2023-02-02T06:47:33.765Z,96651.47
2023-02-02T06:49:36.465Z,96652.81
2023-02-02T06:51:39.467Z,96658.06
2023-02-02T06:53:43.537Z,96665.78
2023-02-02T06:55:53.831Z,96657.81
2023-02-02T06:57:57.857Z,96647.75
2023-02-02T07:00:00.588Z,96653.81
2023-02-02T07:02:03.386Z,96481.16
2023-02-02T07:04:06.120Z,96653.44
2023-02-02T07:06:16.804Z,96616.66
2023-02-02T07:08:19.530Z,96647.50
2023-02-02T07:11:13.509Z,96631.03
2023-02-02T07:12:46.767Z,96645.25
2023-02-02T07:14:49.440Z,96630.22
2023-02-02T07:16:52.239Z,96643.06
2023-02-02T07:18:55.312Z,96626.28
2023-02-02T07:20:59.724Z,96629.38
2023-02-02T07:23:04.478Z,96628.19
2023-02-02T07:25:08.330Z,96608.31
2023-02-02T07:27:12.460Z,96622.88
2023-02-02T07:29:15.398Z,96620.22
2023-02-02T07:31:21.114Z,96627.81
2023-02-02T07:33:24.000Z,96629.25
2023-02-02T07:35:26.863Z,96633.91
2023-02-02T07:37:29.668Z,96657.78
2023-02-02T07:39:32.362Z,96532.03
2023-02-02T07:41:36.754Z,96642.59
2023-02-02T07:43:40.896Z,96657.59
2023-02-02T07:45:43.611Z,96648.19
2023-02-02T07:47:46.355Z,96645.25
2023-02-02T07:49:50.062Z,96678.03
2023-02-02T07:51:52.741Z,96684.34
2023-02-02T07:53:58.459Z,96661.31
2023-02-02T07:56:11.854Z,96670.19
2023-02-02T07:58:14.575Z,96655.28
2023-02-02T08:00:19.914Z,96653.81
2023-02-02T08:02:22.599Z,96664.94
2023-02-02T08:04:25.300Z,96649.63
2023-02-02T08:06:31.324Z,96657.41
2023-02-02T08:08:33.995Z,96651.59
2023-02-02T08:10:36.642Z,96665.72
2023-02-02T08:12:39.310Z,96664.81
2023-02-02T08:14:41.954Z,96673.06
2023-02-02T08:16:46.389Z,96663.78
2023-02-02T08:18:49.377Z,96681.06
2023-02-02T08:20:52.651Z,96673.34
2023-02-02T08:22:55.315Z,96680.19
2023-02-02T08:24:57.967Z,96672.31
2023-02-02T08:27:00.730Z,96674.69
2023-02-02T08:29:08.789Z,96664.91
2023-02-02T08:31:13.993Z,96667.03
2023-02-02T08:33:18.009Z,96654.66
2023-02-02T08:35:21.660Z,96576.16
2023-02-02T08:37:24.333Z,96684.16
2023-02-02T08:39:27.346Z,96693.41
2023-02-02T08:41:30.029Z,96668.19
2023-02-02T08:43:32.739Z,96687.59
2023-02-02T08:46:03.836Z,96681.44
2023-02-02T08:48:10.867Z,96691.31
2023-02-02T08:50:16.023Z,96704.41
2023-02-02T08:52:18.656Z,96713.78
2023-02-02T08:54:21.375Z,96717.41
2023-02-02T08:56:24.726Z,96728.34
2023-02-02T08:58:27.880Z,96731.28
2023-02-02T09:00:30.647Z,96726.59
2023-02-02T09:02:33.641Z,96727.03
2023-02-02T09:04:36.452Z,96724.31
2023-02-02T09:06:41.922Z,96733.91
2023-02-02T09:08:45.008Z,96735.16
2023-02-02T09:10:47.725Z,96741.53
2023-02-02T09:12:50.481Z,96753.22
2023-02-02T09:14:53.184Z,96754.22
2023-02-02T09:16:56.034Z,96764.97
2023-02-02T09:18:58.886Z,96726.59
2023-02-02T09:21:02.673Z,96764.31
2023-02-02T09:23:06.722Z,96773.31
2023-02-02T09:25:09.698Z,96767.97
2023-02-02T09:27:12.429Z,96770.16
2023-02-02T09:29:17.791Z,96761.59
2023-02-02T09:31:20.967Z,96736.88
2023-02-02T09:33:24.148Z,96765.63
2023-02-02T09:35:27.376Z,96772.28
2023-02-02T09:37:30.279Z,96774.38
2023-02-02T09:39:34.359Z,96776.16
2023-02-02T09:42:14.227Z,96764.28
2023-02-02T09:44:27.485Z,96762.59
2023-02-02T09:46:40.824Z,96760.91
2023-02-02T09:48:50.803Z,96769.81
2023-02-02T09:50:56.540Z,96760.53
2023-02-02T09:53:07.572Z,96772.69
2023-02-02T09:55:19.328Z,96787.81
2023-02-02T09:57:25.659Z,96786.38
2023-02-02T09:59:32.499Z,96791.50
2023-02-02T10:01:37.688Z,96785.59
2023-02-02T10:03:46.245Z,96781.25
2023-02-02T10:05:54.692Z,96772.63
2023-02-02T10:08:02.503Z,96796.16
2023-02-02T10:10:13.160Z,96792.44
2023-02-02T10:12:31.626Z,96785.50
2023-02-02T10:14:40.701Z,96793.63
2023-02-02T10:16:43.948Z,96794.44
2023-02-02T10:18:52.695Z,96798.41
2023-02-02T10:20:59.862Z,96805.72
2023-02-02T10:23:14.258Z,96807.59
2023-02-02T10:25:18.186Z,96791.84
2023-02-02T10:27:34.730Z,96801.31
2023-02-02T10:29:49.651Z,96772.75
2023-02-02T10:32:04.432Z,96795.38
2023-02-02T10:34:14.546Z,96760.47
2023-02-02T10:36:27.354Z,96771.06
2023-02-02T10:38:39.901Z,96765.97
2023-02-02T10:40:53.185Z,96766.25
2023-02-02T10:43:34.159Z,96771.84
2023-02-02T10:45:39.624Z,96769.88
2023-02-02T10:47:42.371Z,96764.34
2023-02-02T10:49:45.137Z,96764.88
2023-02-02T10:51:56.099Z,96776.88
2023-02-02T10:54:01.449Z,96759.44
2023-02-02T10:56:06.930Z,96777.03
2023-02-02T10:58:21.812Z,96797.13
2023-02-02T11:00:30.214Z,96781.97
2023-02-02T11:02:33.435Z,96803.19
2023-02-02T11:04:54.579Z,96788.16
2023-02-02T11:06:58.415Z,96796.81
2023-02-02T11:09:04.960Z,96791.78
2023-02-02T11:11:14.186Z,96796.38
2023-02-02T11:13:28.601Z,96796.69
2023-02-02T11:15:32.219Z,96792.19
2023-02-02T11:17:36.000Z,96798.56
2023-02-02T11:19:39.554Z,96803.63
2023-02-02T11:21:42.276Z,96801.81
2023-02-02T11:23:53.126Z,96791.56
2023-02-02T11:26:01.792Z,96794.78
2023-02-02T11:28:18.712Z,96788.47
2023-02-02T11:30:31.227Z,96796.72
2023-02-02T11:32:34.835Z,96759.72
2023-02-02T11:34:37.580Z,96792.84
2023-02-02T11:36:40.314Z,96802.00
2023-02-02T11:38:43.010Z,96783.25
2023-02-02T11:40:47.182Z,96801.41
2023-02-02T11:42:50.009Z,96786.50
2023-02-02T11:44:55.599Z,96794.34
2023-02-02T11:47:00.728Z,96788.16
2023-02-02T11:49:08.371Z,96790.88
2023-02-02T11:51:23.734Z,96789.75
2023-02-02T11:53:29.860Z,96797.00
2023-02-02T11:55:33.822Z,96800.44
2023-02-02T11:57:36.532Z,96797.97
2023-02-02T11:59:40.954Z,96814.69
2023-02-02T12:01:44.086Z,96809.31
2023-02-02T12:03:50.008Z,96797.91
2023-02-02T12:05:53.053Z,96779.28
2023-02-02T12:07:55.776Z,96763.06
2023-02-02T12:10:01.761Z,96795.81
2023-02-02T12:12:10.793Z,96765.41
2023-02-02T12:14:31.508Z,96791.50
2023-02-02T12:16:53.663Z,96788.69
2023-02-02T12:19:08.200Z,96805.81
2023-02-02T12:21:20.149Z,96787.22
2023-02-02T12:23:33.654Z,96791.88
2023-02-02T12:25:54.710Z,96763.16
2023-02-02T12:28:04.713Z,96802.66
2023-02-02T12:30:22.569Z,96785.25
2023-02-02T12:32:35.144Z,96778.22
2023-02-02T12:34:52.096Z,96784.66
2023-02-02T12:37:03.953Z,96783.50
2023-02-02T12:39:21.096Z,96782.00
2023-02-02T12:41:37.838Z,96792.03
2023-02-02T12:43:43.013Z,96777.66
2023-02-02T12:46:02.703Z,96771.38
2023-02-02T12:48:16.252Z,96769.56
2023-02-02T12:50:30.980Z,96776.06
2023-02-02T12:52:46.611Z,96771.34
2023-02-02T12:55:05.141Z,96796.22
2023-02-02T12:57:17.217Z,96751.16
2023-02-02T12:59:36.676Z,96721.66
2023-02-02T13:01:54.129Z,96764.34
2023-02-02T13:04:07.978Z,96780.19
2023-02-02T13:06:42.166Z,96777.19
2023-02-02T13:08:52.127Z,96777.03
2023-02-02T13:11:01.621Z,96762.50
2023-02-02T13:13:11.774Z,96737.88
2023-02-02T13:15:22.389Z,96793.28
2023-02-02T13:17:30.139Z,96773.31
2023-02-02T13:19:36.471Z,96766.56
2023-02-02T13:21:43.286Z,96779.31
2023-02-02T13:23:50.213Z,96767.75
2023-02-02T13:25:57.934Z,96726.59
2023-02-02T13:28:02.112Z,96770.69
2023-02-02T13:30:14.608Z,96768.94
2023-02-02T13:32:25.826Z,96770.94
2023-02-02T13:34:40.660Z,96714.25
2023-02-02T13:36:49.125Z,96751.91
2023-02-02T13:38:52.972Z,96792.75
2023-02-02T13:40:57.166Z,96782.78
2023-02-02T13:43:10.015Z,96743.88
2023-02-02T13:45:42.626Z,96788.09
2023-02-02T13:47:50.696Z,96595.91
2023-02-02T13:49:56.917Z,96802.53
2023-02-02T13:52:19.839Z,96791.13
2023-02-02T13:55:05.823Z,96793.53
2023-02-02T13:57:21.067Z,96810.47
2023-02-02T13:59:46.589Z,96803.19
2023-02-02T14:01:52.273Z,96811.78
2023-02-02T14:03:58.122Z,96808.69
2023-02-02T14:06:08.141Z,96809.06
2023-02-02T14:08:21.708Z,96774.03
2023-02-02T14:10:27.489Z,96806.25
2023-02-02T14:12:33.017Z,96793.34
2023-02-02T14:14:39.190Z,96816.22
2023-02-02T14:17:00.454Z,96827.88
2023-02-02T14:19:04.339Z,96796.97
2023-02-02T14:21:07.140Z,96779.28
2023-02-02T14:23:43.008Z,96822.94
2023-02-02T14:25:55.290Z,96751.31
2023-02-02T14:27:59.920Z,96822.06
2023-02-02T14:30:17.506Z,96816.34
2023-02-02T14:32:34.288Z,96799.03
2023-02-02T14:34:39.373Z,96826.34
2023-02-02T14:36:55.165Z,96832.81
2023-02-02T14:39:11.740Z,96831.22
2023-02-02T14:41:44.149Z,96763.00
2023-02-02T14:43:50.875Z,96843.47
2023-02-02T14:46:22.998Z,96800.81
2023-02-02T14:48:26.739Z,96812.34
2023-02-02T14:50:42.604Z,96826.47
2023-02-02T14:52:45.694Z,96830.09
2023-02-02T14:54:50.127Z,96834.16
2023-02-02T14:56:59.164Z,96776.94
2023-02-02T14:59:03.642Z,96785.06
2023-02-02T15:01:14.451Z,96834.03
2023-02-02T15:03:46.886Z,96830.03
2023-02-02T15:06:03.387Z,96826.34
2023-02-02T15:08:21.720Z,96846.38
2023-02-02T15:10:59.410Z,96840.75
2023-02-02T15:13:08.449Z,96837.50
2023-02-02T15:15:18.489Z,96837.69
2023-02-02T15:17:28.841Z,96846.56
2023-02-02T15:19:36.544Z,96832.72
2023-02-02T15:21:41.738Z,96847.78
2023-02-02T15:23:46.211Z,96854.00
2023-02-02T15:25:52.753Z,96847.53
2023-02-02T15:28:01.213Z,96829.78
2023-02-02T15:30:10.028Z,96838.00
2023-02-02T15:32:17.775Z,96845.50
2023-02-02T15:34:25.961Z,96831.75
2023-02-02T15:36:31.550Z,96875.78
2023-02-02T15:38:37.413Z,96857.91
2023-02-02T15:40:40.560Z,96753.25
2023-02-02T15:42:55.637Z,96863.44
2023-02-02T15:44:58.389Z,96847.91
2023-02-02T15:47:05.546Z,96840.09
2023-02-02T15:49:35.092Z,96761.13
2023-02-02T15:51:38.501Z,96859.06
2023-02-02T15:53:49.252Z,96849.56
2023-02-02T15:55:52.957Z,96836.00
2023-02-02T15:57:55.955Z,96869.94
2023-02-02T16:00:00.034Z,96860.06
2023-02-02T16:02:21.803Z,96860.88
2023-02-02T16:04:29.685Z,96858.88
2023-02-02T16:06:34.675Z,96831.59
2023-02-02T16:08:39.895Z,96876.66
2023-02-02T16:10:44.668Z,96871.34
2023-02-02T16:12:49.545Z,96881.72
2023-02-02T16:14:54.163Z,96878.44
2023-02-02T16:17:10.694Z,96875.13
2023-02-02T16:19:19.765Z,96902.03
2023-02-02T16:21:27.452Z,96892.97
2023-02-02T16:23:34.585Z,96878.53
2023-02-02T16:25:43.869Z,96906.56
2023-02-02T16:27:49.545Z,96921.91
2023-02-02T16:29:52.657Z,96904.81
2023-02-02T16:31:56.939Z,96697.91
2023-02-02T16:34:02.352Z,96937.34
2023-02-02T16:36:24.436Z,96933.66
2023-02-02T16:38:32.599Z,96927.00
2023-02-02T16:40:35.548Z,96936.50
2023-02-02T16:42:38.420Z,96948.72
2023-02-02T16:44:44.089Z,96899.38
2023-02-02T16:46:49.862Z,96959.69
2023-02-02T16:48:59.019Z,96953.16
2023-02-02T16:51:26.794Z,96919.19
2023-02-02T16:53:30.103Z,96966.16
2023-02-02T16:55:49.251Z,96986.56
2023-02-02T16:57:52.759Z,96978.94
2023-02-02T16:59:57.874Z,96977.03
2023-02-02T17:02:04.891Z,96961.44
2023-02-02T17:04:18.819Z,96983.38
2023-02-02T17:06:42.062Z,96937.09
2023-02-02T17:08:53.034Z,96982.66
2023-02-02T17:11:03.417Z,96998.81
2023-02-02T17:13:39.163Z,97017.66
2023-02-02T17:15:42.169Z,97015.63
2023-02-02T17:17:44.940Z,97018.38
2023-02-02T17:19:48.354Z,97031.34
2023-02-02T17:21:52.754Z,97020.19
2023-02-02T17:23:56.163Z,97033.53
2023-02-02T17:25:59.628Z,97039.97
2023-02-02T17:28:03.569Z,97033.53
2023-02-02T17:30:07.506Z,97038.03
2023-02-02T17:32:12.506Z,97033.47
2023-02-02T17:34:16.265Z,97037.97
2023-02-02T17:36:19.036Z,97042.63
2023-02-02T17:38:23.890Z,97037.75
2023-02-02T17:40:27.018Z,97018.28
2023-02-02T17:42:30.613Z,97047.19
2023-02-02T17:44:33.712Z,96968.44
2023-02-02T17:46:38.377Z,97071.81
2023-02-02T17:48:42.780Z,97064.72
2023-02-02T17:50:46.437Z,97019.63
2023-02-02T17:52:50.159Z,97069.16
2023-02-02T17:54:54.243Z,97053.63
2023-02-02T17:56:56.977Z,97051.63
2023-02-02T17:58:59.755Z,97078.06
2023-02-02T18:01:03.238Z,97064.81
2023-02-02T18:03:12.958Z,97032.38
2023-02-02T18:05:16.678Z,97066.34
2023-02-02T18:07:19.620Z,97045.72
2023-02-02T18:09:22.396Z,96975.94
2023-02-02T18:11:26.509Z,97089.28
2023-02-02T18:13:29.453Z,97075.69
2023-02-02T18:15:32.260Z,97079.19
2023-02-02T18:17:35.667Z,97082.59
2023-02-02T18:19:39.383Z,97079.09
2023-02-02T18:21:42.188Z,97090.94
2023-02-02T18:23:48.426Z,97094.25
2023-02-02T18:25:52.789Z,97106.03
2023-02-02T18:27:57.601Z,97095.84
2023-02-02T18:30:00.420Z,97071.34
2023-02-02T18:32:03.902Z,97048.25
2023-02-02T18:34:06.666Z,97077.22
2023-02-02T18:36:12.390Z,97088.88
2023-02-02T18:38:15.660Z,97018.81
2023-02-02T18:40:19.366Z,97077.53
2023-02-02T18:42:22.146Z,97040.81
2023-02-02T18:44:26.715Z,97080.91
2023-02-02T18:46:33.705Z,97039.72
2023-02-02T18:48:37.053Z,97077.06
2023-02-02T18:50:39.779Z,97035.88
2023-02-02T18:52:42.603Z,97071.91
2023-02-02T18:54:47.397Z,97083.31
2023-02-02T18:56:50.611Z,97086.44
2023-02-02T18:58:53.600Z,97091.84
2023-02-02T19:00:57.760Z,97076.69
2023-02-02T19:03:00.721Z,97074.50
2023-02-02T19:05:21.174Z,97064.31
2023-02-02T19:07:41.353Z,97070.00
2023-02-02T19:09:44.091Z,97056.50
2023-02-02T19:11:48.832Z,97065.78
2023-02-02T19:13:51.785Z,97025.41
2023-02-02T19:15:54.874Z,97069.25
2023-02-02T19:17:58.991Z,97066.59
2023-02-02T19:20:08.433Z,97045.59
2023-02-02T19:22:19.644Z,96966.44
2023-02-02T19:24:22.579Z,97077.72
2023-02-02T19:26:26.992Z,96993.13
2023-02-02T19:28:31.180Z,97085.50
2023-02-02T19:30:34.029Z,96958.47
2023-02-02T19:32:38.425Z,97106.50
2023-02-02T19:34:42.962Z,97099.91
2023-02-02T19:36:49.181Z,97100.53
2023-02-02T19:38:56.675Z,97093.94
2023-02-02T19:41:02.342Z,97065.22
2023-02-02T19:43:20.454Z,97026.06
2023-02-02T19:45:26.665Z,97088.50
2023-02-02T19:47:32.897Z,97081.88
2023-02-02T19:49:37.522Z,97081.34
2023-02-02T19:51:46.313Z,97078.41
2023-02-02T19:53:49.130Z,97057.84
2023-02-02T19:55:53.236Z,97085.84
2023-02-02T19:58:01.436Z,97081.72
2023-02-02T20:00:20.695Z,97100.81
2023-02-02T20:02:44.349Z,97105.13
2023-02-02T20:04:47.197Z,97103.00
2023-02-02T20:06:59.142Z,97106.03
2023-02-02T20:09:11.019Z,97105.78
2023-02-02T20:11:31.853Z,97110.72
2023-02-02T20:13:39.667Z,97113.03
2023-02-02T20:15:42.853Z,97112.66
2023-02-02T20:17:45.613Z,97117.34
2023-02-02T20:19:49.189Z,97118.06
2023-02-02T20:21:54.356Z,97110.81
2023-02-02T20:23:57.180Z,96980.84
2023-02-02T20:26:03.165Z,97066.69
2023-02-02T20:28:19.193Z,97102.38
2023-02-02T20:30:26.499Z,97105.97
2023-02-02T20:32:38.519Z,97104.41
2023-02-02T20:34:44.676Z,97100.38
2023-02-02T20:36:48.491Z,97102.13
2023-02-02T20:38:52.679Z,97106.06
2023-02-02T20:40:59.192Z,97105.50
2023-02-02T20:43:02.747Z,97073.03
2023-02-02T20:45:06.699Z,97106.16
2023-02-02T20:47:09.903Z,97109.28
2023-02-02T20:49:13.252Z,97097.81
2023-02-02T20:51:16.852Z,97106.88
2023-02-02T20:53:19.858Z,97106.06
2023-02-02T20:55:24.021Z,97095.69
2023-02-02T20:57:26.797Z,97105.22
2023-02-02T20:59:29.669Z,97102.75
2023-02-02T21:01:32.424Z,97101.56
2023-02-02T21:03:35.252Z,97109.28
2023-02-02T21:05:38.125Z,97109.81
2023-02-02T21:07:40.909Z,97114.22
2023-02-02T21:09:43.791Z,97118.28
2023-02-02T21:11:48.367Z,97114.69
2023-02-02T21:13:55.007Z,97116.44
2023-02-02T21:15:57.965Z,97074.94
2023-02-02T21:18:00.678Z,97107.81
2023-02-02T21:20:03.370Z,97109.09
2023-02-02T21:22:06.153Z,97092.94
2023-02-02T21:24:09.209Z,97109.28
2023-02-02T21:26:12.523Z,97016.25
2023-02-02T21:28:16.553Z,97119.38
2023-02-02T21:30:19.606Z,97109.16
2023-02-02T21:32:22.292Z,97110.09
2023-02-02T21:34:25.042Z,97105.50
2023-02-02T21:36:33.137Z,97116.66
2023-02-02T21:38:36.723Z,97120.84
2023-02-02T21:40:40.622Z,97003.03
2023-02-02T21:42:49.256Z,97118.13
2023-02-02T21:44:56.941Z,97069.66
2023-02-02T21:46:59.650Z,97114.53
2023-02-02T21:49:02.755Z,97119.66
2023-02-02T21:51:22.428Z,97111.84
2023-02-02T21:53:26.893Z,97043.47
2023-02-02T21:55:35.487Z,97075.53
2023-02-02T21:57:38.360Z,97126.75
2023-02-02T21:59:41.088Z,97119.88
2023-02-02T22:01:47.019Z,97130.00
2023-02-02T22:03:50.970Z,97132.00
2023-02-02T22:05:58.924Z,97131.75
2023-02-02T22:08:03.751Z,97111.66
2023-02-02T22:10:25.684Z,97090.16
2023-02-02T22:12:28.929Z,97144.50
2023-02-02T22:14:38.028Z,97047.84
2023-02-02T22:16:45.147Z,97073.94
2023-02-02T22:18:49.242Z,97135.78
2023-02-02T22:20:54.384Z,97137.53
2023-02-02T22:22:57.065Z,97149.56
2023-02-02T22:25:03.097Z,97147.72
2023-02-02T22:27:17.931Z,97142.69
2023-02-02T22:29:24.401Z,97139.84
2023-02-02T22:31:27.147Z,97130.19
2023-02-02T22:33:29.936Z,97131.84
2023-02-02T22:35:34.344Z,97134.50
2023-02-02T22:37:37.075Z,97111.28
2023-02-02T22:39:42.699Z,97087.78
2023-02-02T22:41:45.430Z,97138.81
2023-02-02T22:43:48.097Z,97129.66
2023-02-02T22:45:50.840Z,97112.03
2023-02-02T22:47:54.407Z,97147.44
2023-02-02T22:49:57.226Z,97132.78
2023-02-02T22:52:01.324Z,97121.28
2023-02-02T22:54:04.211Z,97131.31
2023-02-02T22:56:07.543Z,97130.84
2023-02-02T22:58:10.365Z,97142.03
2023-02-02T23:00:15.177Z,97133.97
2023-02-02T23:02:17.960Z,97120.94
2023-02-02T23:04:21.684Z,97125.06
2023-02-02T23:06:24.408Z,97117.72
2023-02-02T23:08:28.550Z,97126.34
2023-02-02T23:10:35.362Z,97118.72
2023-02-02T23:12:38.223Z,97130.00
2023-02-02T23:14:41.000Z,97036.88
2023-02-02T23:16:43.722Z,97135.97
2023-02-02T23:18:46.702Z,97133.31
2023-02-02T23:20:50.451Z,97119.56
2023-02-02T23:22:53.185Z,97127.34
2023-02-02T23:24:57.259Z,97120.19
2023-02-02T23:27:00.082Z,97138.19
2023-02-02T23:29:02.898Z,97069.06
2023-02-02T23:31:05.961Z,97138.66
2023-02-02T23:33:08.702Z,97140.66
2023-02-02T23:35:11.515Z,97134.59
2023-02-02T23:37:14.486Z,97136.63
2023-02-02T23:39:17.173Z,97148.28
2023-02-02T23:41:21.269Z,97091.09
2023-02-02T23:43:23.968Z,97145.97
2023-02-02T23:45:26.819Z,97151.31
2023-02-02T23:47:30.612Z,97164.44
2023-02-02T23:49:34.999Z,97149.94
2023-02-02T23:51:37.836Z,97155.72
2023-02-02T23:53:41.620Z,97092.06
2023-02-02T23:55:45.669Z,97086.47
2023-02-02T23:57:49.762Z,97123.47
2023-02-02T23:59:52.473Z,97137.88
